Terminal Aerodrome Forecast
Issued by NWS

Home | Current Version | Previous Version | Text Only | Print | Product List | Glossary On
Versions: 1 2 3 4 5 6 7 8 9 10 11 12 13 14 15 16 17 18
000
FTUS46 KSEW 190729 AAB
TAFBFI
TAF AMD
KBFI 190729Z 1907/2006 18014G25KT P6SM -RA BKN022 OVC040
     FM191100 16010KT P6SM -SHRA BKN025 OVC040
     FM191400 16009KT P6SM VCSH BKN035 OVC050
     FM191900 16010KT P6SM -SHRA BKN030 OVC045
     FM200200 16008KT P6SM VCSH SCT030 OVC050=

USA.gov is the U.S. government's official web portal to all federal, state and local government web resources and services.